createdAt,value
2023-05-21T00:07:09.820Z,27.83
2023-05-21T00:14:28.362Z,27.05
2023-05-21T00:21:48.753Z,25.38
2023-05-21T00:29:07.111Z,28.48
2023-05-21T00:36:25.613Z,24.88
2023-05-21T00:43:45.446Z,22.38
2023-05-21T00:51:03.889Z,25.80
2023-05-21T00:58:22.311Z,24.45
2023-05-21T01:05:45.345Z,23.77
2023-05-21T01:13:04.080Z,24.65
2023-05-21T01:20:25.052Z,24.48
2023-05-21T01:27:44.958Z,24.98
2023-05-21T01:35:06.259Z,23.17
2023-05-21T01:42:25.526Z,22.00
2023-05-21T01:49:45.458Z,24.08
2023-05-21T01:57:04.079Z,23.85
2023-05-21T02:04:22.698Z,24.75
2023-05-21T02:11:42.468Z,23.83
2023-05-21T02:19:00.991Z,20.40
2023-05-21T02:26:19.462Z,26.38
2023-05-21T02:33:41.429Z,24.67
2023-05-21T02:41:02.420Z,24.58
2023-05-21T02:48:24.466Z,28.80
2023-05-21T02:55:44.172Z,21.92
2023-05-21T03:03:03.376Z,23.55
2023-05-21T03:10:21.833Z,28.15
2023-05-21T03:17:42.406Z,23.73
2023-05-21T03:25:01.942Z,22.65
2023-05-21T03:32:20.507Z,26.00
2023-05-21T03:39:45.559Z,27.27
2023-05-21T03:47:04.382Z,24.15
2023-05-21T03:54:26.615Z,21.98
2023-05-21T04:01:50.298Z,22.75
2023-05-21T04:09:09.126Z,22.08
2023-05-21T04:16:27.958Z,21.10
2023-05-21T04:23:47.726Z,18.25
2023-05-21T04:31:15.863Z,20.30
2023-05-21T04:38:34.915Z,17.08
2023-05-21T04:45:58.690Z,19.67
2023-05-21T04:53:17.083Z,20.45
2023-05-21T05:00:37.942Z,17.70
2023-05-21T05:08:00.757Z,16.85
2023-05-21T05:15:19.090Z,16.05
2023-05-21T05:22:38.414Z,14.82
2023-05-21T05:29:58.200Z,14.35
2023-05-21T05:37:16.703Z,14.73
2023-05-21T05:44:35.453Z,14.82
2023-05-21T05:51:55.281Z,13.82
2023-05-21T05:59:13.790Z,15.18
2023-05-21T06:06:38.908Z,15.63
2023-05-21T06:14:03.658Z,13.63
2023-05-21T06:21:22.041Z,13.13
2023-05-21T06:28:40.453Z,11.07
2023-05-21T06:36:02.670Z,9.52
2023-05-21T06:43:21.788Z,11.57
2023-05-21T06:50:58.589Z,12.32
2023-05-21T06:58:19.926Z,10.38
2023-05-21T07:05:39.185Z,12.43
2023-05-21T07:12:58.214Z,11.20
2023-05-21T07:20:18.123Z,8.85
2023-05-21T07:27:39.610Z,9.05
2023-05-21T07:34:57.860Z,14.98
2023-05-21T07:42:19.440Z,10.82
2023-05-21T07:49:37.732Z,9.70
2023-05-21T07:56:55.869Z,10.07
2023-05-21T08:04:35.358Z,8.85
2023-05-21T08:11:53.946Z,9.90
2023-05-21T08:19:12.609Z,7.65
2023-05-21T08:26:32.665Z,11.77
2023-05-21T08:33:56.558Z,11.05
2023-05-21T08:41:27.606Z,8.40
2023-05-21T08:48:48.352Z,6.65
2023-05-21T08:56:07.005Z,7.05
2023-05-21T09:03:33.889Z,7.30
2023-05-21T09:10:53.823Z,9.60
2023-05-21T09:18:16.402Z,6.53
2023-05-21T09:25:58.867Z,9.95
2023-05-21T09:33:26.630Z,5.72
2023-05-21T09:40:56.383Z,4.20
2023-05-21T09:48:17.346Z,5.47
2023-05-21T09:55:37.716Z,6.50
2023-05-21T10:02:57.237Z,5.68
2023-05-21T10:10:17.336Z,5.68
2023-05-21T10:17:35.966Z,5.53
2023-05-21T10:24:54.763Z,4.28
2023-05-21T10:32:17.165Z,4.30
2023-05-21T10:39:35.778Z,8.55
2023-05-21T10:47:23.662Z,6.65
2023-05-21T10:54:57.589Z,5.55
2023-05-21T11:02:16.799Z,7.45
2023-05-21T11:09:35.093Z,4.43
2023-05-21T11:16:54.753Z,7.10
2023-05-21T11:24:20.482Z,4.95
2023-05-21T11:31:41.628Z,8.60
2023-05-21T11:39:12.125Z,5.93
2023-05-21T11:46:31.211Z,5.50
2023-05-21T11:53:50.478Z,4.13
2023-05-21T12:01:09.963Z,6.35
2023-05-21T12:08:29.102Z,3.67
2023-05-21T12:15:48.940Z,7.50
2023-05-21T12:23:08.625Z,4.90
2023-05-21T12:30:27.714Z,4.20
2023-05-21T12:37:45.914Z,4.57
2023-05-21T12:45:09.152Z,4.60
2023-05-21T12:52:28.753Z,4.63
2023-05-21T12:59:49.093Z,7.20
2023-05-21T13:07:08.835Z,5.80
2023-05-21T13:14:27.122Z,4.47
2023-05-21T13:21:45.301Z,7.85
2023-05-21T13:29:04.767Z,9.25
2023-05-21T13:36:22.903Z,4.80
2023-05-21T13:43:43.513Z,4.85
2023-05-21T13:51:03.140Z,5.65
2023-05-21T13:58:21.424Z,10.07
2023-05-21T14:05:39.755Z,5.22
2023-05-21T14:13:07.795Z,3.55
2023-05-21T14:20:37.735Z,5.43
2023-05-21T14:27:55.963Z,7.18
2023-05-21T14:35:15.587Z,9.20
2023-05-21T14:42:33.640Z,8.32
2023-05-21T14:49:52.124Z,4.93
2023-05-21T14:57:11.643Z,7.60
2023-05-21T15:04:29.783Z,3.90
2023-05-21T15:11:52.673Z,7.47
2023-05-21T15:19:12.422Z,5.22
2023-05-21T15:26:30.641Z,6.80
2023-05-21T15:33:49.197Z,5.07
2023-05-21T15:41:08.892Z,5.15
2023-05-21T15:48:27.121Z,7.65
2023-05-21T15:55:45.496Z,5.88
2023-05-21T16:03:05.272Z,4.25
2023-05-21T16:10:23.930Z,6.57
2023-05-21T16:17:42.144Z,6.25
2023-05-21T16:25:01.660Z,4.30
2023-05-21T16:32:20.132Z,5.28
2023-05-21T16:39:38.570Z,5.53
2023-05-21T16:46:58.261Z,10.38
2023-05-21T16:54:16.571Z,7.22
2023-05-21T17:01:35.041Z,6.00
2023-05-21T17:08:55.041Z,2.85
2023-05-21T17:16:13.724Z,3.92
2023-05-21T17:23:32.299Z,5.45
2023-05-21T17:30:52.038Z,6.45
2023-05-21T17:38:10.565Z,6.32
2023-05-21T17:45:28.879Z,6.88
2023-05-21T17:52:48.642Z,3.47
2023-05-21T18:00:08.706Z,4.00
2023-05-21T18:07:33.017Z,4.18
2023-05-21T18:14:52.969Z,8.05
2023-05-21T18:22:12.228Z,5.05
2023-05-21T18:29:31.531Z,6.50
2023-05-21T18:36:54.254Z,7.03
2023-05-21T18:44:12.628Z,7.10
2023-05-21T18:51:31.737Z,6.47
2023-05-21T18:58:51.482Z,5.95
2023-05-21T19:06:10.121Z,6.43
2023-05-21T19:13:28.315Z,5.47
2023-05-21T19:20:48.181Z,5.95
2023-05-21T19:28:06.310Z,5.32
2023-05-21T19:35:24.757Z,5.47
2023-05-21T19:42:44.658Z,7.28
2023-05-21T19:50:02.882Z,7.90
2023-05-21T19:57:21.268Z,9.80
2023-05-21T20:04:41.201Z,9.40
2023-05-21T20:11:59.580Z,8.88
2023-05-21T20:19:18.084Z,7.43
2023-05-21T20:26:37.755Z,8.63
2023-05-21T20:33:56.044Z,8.63
2023-05-21T20:41:14.646Z,7.03
2023-05-21T20:48:35.363Z,7.35
2023-05-21T20:55:55.049Z,8.23
2023-05-21T21:03:13.488Z,5.97
2023-05-21T21:10:34.019Z,10.60
2023-05-21T21:17:52.369Z,7.47
2023-05-21T21:25:11.242Z,6.85
2023-05-21T21:32:30.834Z,8.30
2023-05-21T21:39:49.031Z,7.47
2023-05-21T21:47:07.680Z,6.55
2023-05-21T21:54:28.016Z,8.40
2023-05-21T22:01:46.620Z,6.85
2023-05-21T22:09:05.042Z,5.30
2023-05-21T22:16:25.406Z,7.30
2023-05-21T22:23:43.895Z,8.60
2023-05-21T22:31:02.328Z,8.43
2023-05-21T22:38:22.329Z,8.45
2023-05-21T22:45:40.861Z,6.93
2023-05-21T22:52:59.134Z,8.43
2023-05-21T23:00:20.928Z,6.75
2023-05-21T23:07:39.219Z,6.57
2023-05-21T23:14:57.513Z,9.80
2023-05-21T23:22:17.339Z,6.10
2023-05-21T23:29:35.585Z,7.72
2023-05-21T23:36:53.841Z,6.40
2023-05-21T23:44:13.587Z,4.53
2023-05-21T23:51:31.971Z,10.55
2023-05-21T23:58:50.252Z,5.95
